»·PEaware :: PHTIM KSAN-KSAN

PHTIM :: KSAN-KSAN

FLIGHT INFORMATION

Flight Status: Arrived
Operator: Unknown
More flights by this operator :: More flights under this callsign
Pilot: Tim P. (6337)
Aircraft: CESSNA T210 TURBO CENTURION
(T210)
More flights by this aircraft type
Origin: KSAN San Diego Intl-Lindbergh
United States
Destination: KSAN San Diego Intl-Lindbergh
United States
More flights between these airports :: More routes between these airports
Route: +
File this flight plan on PilotEdge
Remarks:
Altitude:
(Current/Filed)
0ft
Speed:
(Current/Filed)
0kts
Departed: 18-Dec-18 10:16 AM
Arrived: 18-Dec-18 11:30 AM
Distance/Time
Traveled:
1nm/1:14
Distance/Time
To Go:
Arrived

Flight Plot

Page will automatically refresh every two minutes.


Map Options




Map Legend


Flown Route
Filed Route
Departure Airport
Arrival Airport
Navaid (VOR, NDB)
Fix

Horizontal Profiles

Position Reports

Time Latitude Longitude Heading Altitude Ground
Speed
18-Dec-18 10:09 32.732306 -117.177547 193 20ft 0kts
18-Dec-18 10:10 32.732306 -117.177547 193 20ft 0kts
18-Dec-18 10:11 32.732306 -117.177547 193 20ft 0kts
18-Dec-18 10:12 32.732306 -117.177547 193 20ft 0kts
18-Dec-18 10:13 32.731581 -117.176854 123 22ft 7kts
18-Dec-18 10:14 32.730870 -117.175449 137 23ft 0kts
18-Dec-18 10:15 32.731985 -117.183471 284 69ft 82kts
18-Dec-18 10:16 32.739960 -117.210008 314 1064ft 96kts
18-Dec-18 10:17 32.762401 -117.228445 13 2169ft 106kts
18-Dec-18 10:18 32.783456 -117.204576 47 3121ft 104kts
18-Dec-18 10:19 32.800671 -117.175962 49 3794ft 105kts
18-Dec-18 10:20 32.819712 -117.148973 44 4487ft 107kts
18-Dec-18 10:21 32.838597 -117.121894 48 5255ft 103kts
18-Dec-18 10:22 32.856808 -117.092291 50 5794ft 114kts
18-Dec-18 10:23 32.874007 -117.060884 52 6430ft 117kts
18-Dec-18 10:24 32.892525 -117.029477 48 7038ft 117kts
18-Dec-18 10:25 32.911826 -116.995268 51 7492ft 134kts
18-Dec-18 10:26 32.933851 -116.954439 53 7610ft 153kts
18-Dec-18 10:27 32.957661 -116.909751 54 7518ft 163kts
18-Dec-18 10:28 32.982899 -116.864170 53 7521ft 167kts
18-Dec-18 10:29 33.009138 -116.818657 52 7517ft 166kts
18-Dec-18 10:30 33.034675 -116.772984 52 7517ft 164kts
18-Dec-18 10:31 33.060402 -116.728837 51 7515ft 159kts
18-Dec-18 10:32 33.085338 -116.684792 52 7519ft 162kts
18-Dec-18 10:33 33.109901 -116.641034 53 7522ft 162kts
18-Dec-18 10:34 33.128522 -116.592788 89 7520ft 170kts
18-Dec-18 10:35 33.124521 -116.534583 90 7218ft 182kts
18-Dec-18 10:36 33.126042 -116.473789 85 6673ft 188kts
18-Dec-18 10:37 33.121955 -116.411141 81 5887ft 189kts
18-Dec-18 10:38 33.128245 -116.347992 81 5089ft 192kts
18-Dec-18 10:39 33.135565 -116.287204 76 4474ft 169kts
18-Dec-18 10:40 33.148228 -116.234358 84 3386ft 170kts
18-Dec-18 10:41 33.142450 -116.180606 97 2522ft 160kts
18-Dec-18 10:42 33.121975 -116.137383 152 1760ft 151kts
18-Dec-18 10:43 33.117777 -116.114931 15 1246ft 104kts
18-Dec-18 10:44 33.139560 -116.124656 324 300ft 81kts
18-Dec-18 10:45 33.148339 -116.130912 173 164ft 0kts
18-Dec-18 10:46 33.148340 -116.130912 173 164ft 0kts
18-Dec-18 10:47 33.148340 -116.130912 173 164ft 0kts
18-Dec-18 10:48 33.148340 -116.130912 173 164ft 0kts
18-Dec-18 10:49 33.148340 -116.130912 173 164ft 0kts
18-Dec-18 10:50 33.148340 -116.130912 173 164ft 0kts
18-Dec-18 10:51 33.148340 -116.130912 173 164ft 0kts
18-Dec-18 10:52 33.148340 -116.130912 173 164ft 0kts
18-Dec-18 10:53 33.148340 -116.130912 173 164ft 0kts
18-Dec-18 10:54 33.148340 -116.130912 173 164ft 0kts
18-Dec-18 10:55 33.148340 -116.130912 173 164ft 0kts
18-Dec-18 10:56 33.148339 -116.130912 173 164ft 0kts
18-Dec-18 10:58 33.149503 -116.132667 324 164ft 24kts
18-Dec-18 10:59 33.153592 -116.135911 147 164ft 4kts
18-Dec-18 11:00 33.142260 -116.126683 146 396ft 85kts
18-Dec-18 11:01 33.131185 -116.099642 88 1388ft 100kts
18-Dec-18 11:02 33.131293 -116.064149 88 2222ft 108kts
18-Dec-18 11:03 33.143386 -116.061885 264 3008ft 108kts
18-Dec-18 11:04 33.139535 -116.098238 266 3776ft 113kts
18-Dec-18 11:05 33.137519 -116.136049 267 4508ft 113kts
18-Dec-18 11:06 33.135157 -116.174109 269 5177ft 119kts
18-Dec-18 11:07 33.134623 -116.212945 278 5898ft 120kts
18-Dec-18 11:08 33.134460 -116.253120 270 6466ft 132kts
18-Dec-18 11:09 33.132779 -116.302597 277 6539ft 156kts
18-Dec-18 11:10 33.135926 -116.354055 276 6637ft 155kts
18-Dec-18 11:11 33.137597 -116.406548 274 6512ft 161kts
18-Dec-18 11:12 33.139393 -116.459011 276 6434ft 159kts
18-Dec-18 11:13 33.137170 -116.511905 261 6408ft 158kts
18-Dec-18 11:13 33.129583 -116.555082 262 6390ft 158kts
18-Dec-18 11:15 33.110069 -116.612185 237 6301ft 164kts
18-Dec-18 11:16 33.083367 -116.655595 236 6346ft 164kts
18-Dec-18 11:16 33.060140 -116.690820 232 6471ft 160kts
18-Dec-18 11:18 33.023785 -116.736300 227 6530ft 163kts
18-Dec-18 11:19 32.990732 -116.775017 226 6554ft 162kts
18-Dec-18 11:19 32.962776 -116.806126 224 6647ft 166kts
18-Dec-18 11:20 32.925535 -116.841107 215 6638ft 169kts
18-Dec-18 11:21 32.887441 -116.876540 218 6467ft 179kts
18-Dec-18 11:22 32.843759 -116.913917 223 5463ft 202kts
18-Dec-18 11:24 32.800222 -116.970865 229 4379ft 198kts
18-Dec-18 11:24 32.768677 -117.010087 225 3541ft 194kts
18-Dec-18 11:25 32.735007 -117.053774 231 2573ft 166kts
18-Dec-18 11:26 32.713814 -117.097336 260 1842ft 149kts
18-Dec-18 11:27 32.720760 -117.137199 287 952ft 98kts
18-Dec-18 11:28 32.727664 -117.165761 289 368ft 81kts
18-Dec-18 11:29 32.732924 -117.186978 286 18ft 28kts
18-Dec-18 11:30 32.734014 -117.188048 34 18ft 0kts
18-Dec-18 11:31 32.734014 -117.188048 34 18ft 0kts
18-Dec-18 11:32 32.733728 -117.185605 106 18ft 13kts
18-Dec-18 11:33 32.732690 -117.181347 106 17ft 14kts
18-Dec-18 11:34 32.732203 -117.177351 18 21ft 7kts
18-Dec-18 11:35 32.732237 -117.177190 195 21ft 0kts
18-Dec-18 11:36 32.732237 -117.177190 195 21ft 0kts

Navigation Log

Ident Type
Flight plan parsing failed, navigation log unavailable